Etusivu
METAR-TAF:

METAR-TAF

Lentoasemat :

Harbin, Kiina

Leveyspiiri: 45-45N, Pituuspiiri: 126-46E, korkeus merenpinnasta: 143 m

Tämänhetkinen sää

Tämä raportti tehtiin 1 tunti ja 2 minuuttia sitten, kello 23.00 UTC
Tuuli 6 kn lännestä/lounaasta
Lämpötila 25°C
Kosteus 61%
Ilmanpaine 1005 hPa
Näkyvyys 10 km tai enemmän
ei pilviä alle 1500 m:ssä eikä cumulonimbus-pilviä

METAR: ZYHB 232300Z 24003MPS CAVOK 25/17 Q1005 NOSIG

Aika: 08:02 (00:02 UTC)

Sääennuste

Tämä raportti tehtiin 11 tuntia ja 0 minuuttia sitten, kello 13.02 UTC
Ennuste voimassa 23. päivästä klo 18 UTC - 24. päivään klo 18 UTC
Tuuli 6 kn lännestä/lounaasta
Näkyvyys: 6000 m
Hajanaisia pilviä 2600 ft:n korkeudessa

TAF: ZYHB 231302Z 2318/2418 24003MPS 6000 SCT026 TX30/2406Z TN18/2321Z

Säähavainnot ja -ennusteet yli 4000 lentoasemalta (METAR- ja TAF-raportit).

Käytössä olevat sääasemat on merkitty karttaan keltaisilla ja punaisilla pisteillä.

Aseta hiiri pisteen päälle nähdäksesi sääaseman nimen.

Klikkaa sitten nähdäksesi säähavainnot ja -ennusteet.

Kartan vaihtaminen: klikkaa mustalla rastilla varustettuja vihreitä pisteitä, niin voit zoomata sisään; viivalla varustettua vihreää pistettä, niin voit zoomata ulos tai vihreitä nuolia, niin pääset viereisille kartoille.


METAR-TAF: